sensor_id;sensor_type;location;lat;lon;timestamp;temperature;humidity
17726;DHT22;8983;53.156;17.960;2022-11-23T00:00:48;0.90;99.90
17726;DHT22;8983;53.156;17.960;2022-11-23T00:03:16;0.90;99.90
17726;DHT22;8983;53.156;17.960;2022-11-23T00:05:44;0.90;99.90
17726;DHT22;8983;53.156;17.960;2022-11-23T00:08:12;0.90;99.90
17726;DHT22;8983;53.156;17.960;2022-11-23T00:10:41;0.90;99.90
17726;DHT22;8983;53.156;17.960;2022-11-23T00:13:09;1.00;99.90
17726;DHT22;8983;53.156;17.960;2022-11-23T00:15:39;0.90;99.90
17726;DHT22;8983;53.156;17.960;2022-11-23T00:18:07;0.90;99.90
17726;DHT22;8983;53.156;17.960;2022-11-23T00:20:38;0.90;99.90
17726;DHT22;8983;53.156;17.960;2022-11-23T00:23:06;1.00;99.90
17726;DHT22;8983;53.156;17.960;2022-11-23T00:25:34;1.00;99.90
17726;DHT22;8983;53.156;17.960;2022-11-23T00:28:04;0.90;99.90
17726;DHT22;8983;53.156;17.960;2022-11-23T00:30:32;1.00;99.90
17726;DHT22;8983;53.156;17.960;2022-11-23T00:32:59;1.00;99.90
17726;DHT22;8983;53.156;17.960;2022-11-23T00:35:27;1.00;99.90
17726;DHT22;8983;53.156;17.960;2022-11-23T00:37:55;1.00;99.90
17726;DHT22;8983;53.156;17.960;2022-11-23T00:40:23;1.00;99.90
17726;DHT22;8983;53.156;17.960;2022-11-23T00:42:51;1.00;99.90
17726;DHT22;8983;53.156;17.960;2022-11-23T00:45:20;1.00;99.90
17726;DHT22;8983;53.156;17.960;2022-11-23T00:47:48;1.00;99.90
17726;DHT22;8983;53.156;17.960;2022-11-23T00:50:16;1.00;99.90
17726;DHT22;8983;53.156;17.960;2022-11-23T00:52:44;1.00;99.90
17726;DHT22;8983;53.156;17.960;2022-11-23T00:55:12;1.00;99.90
17726;DHT22;8983;53.156;17.960;2022-11-23T00:57:40;1.00;99.90
17726;DHT22;8983;53.156;17.960;2022-11-23T01:00:09;1.00;99.90
17726;DHT22;8983;53.156;17.960;2022-11-23T01:02:39;1.00;99.90
17726;DHT22;8983;53.156;17.960;2022-11-23T01:05:07;1.00;99.90
17726;DHT22;8983;53.156;17.960;2022-11-23T01:07:35;1.00;99.90
17726;DHT22;8983;53.156;17.960;2022-11-23T01:10:04;1.00;99.90
17726;DHT22;8983;53.156;17.960;2022-11-23T01:12:33;1.00;99.90
17726;DHT22;8983;53.156;17.960;2022-11-23T01:15:01;1.00;99.90
17726;DHT22;8983;53.156;17.960;2022-11-23T01:17:29;1.00;99.90
17726;DHT22;8983;53.156;17.960;2022-11-23T01:19:59;1.00;99.90
17726;DHT22;8983;53.156;17.960;2022-11-23T01:22:26;1.00;99.90
17726;DHT22;8983;53.156;17.960;2022-11-23T01:24:54;1.00;99.90
17726;DHT22;8983;53.156;17.960;2022-11-23T01:27:22;1.00;99.90
17726;DHT22;8983;53.156;17.960;2022-11-23T01:29:50;1.00;99.90
17726;DHT22;8983;53.156;17.960;2022-11-23T01:32:18;1.00;99.90
17726;DHT22;8983;53.156;17.960;2022-11-23T01:34:46;1.00;99.90
17726;DHT22;8983;53.156;17.960;2022-11-23T01:37:15;1.00;99.90
17726;DHT22;8983;53.156;17.960;2022-11-23T01:39:43;1.00;99.90
17726;DHT22;8983;53.156;17.960;2022-11-23T01:42:11;1.00;99.90
17726;DHT22;8983;53.156;17.960;2022-11-23T01:44:43;1.00;99.90
17726;DHT22;8983;53.156;17.960;2022-11-23T01:47:11;1.00;99.90
17726;DHT22;8983;53.156;17.960;2022-11-23T01:49:41;1.00;99.90
17726;DHT22;8983;53.156;17.960;2022-11-23T01:52:13;1.00;99.90
17726;DHT22;8983;53.156;17.960;2022-11-23T01:54:45;1.00;99.90
17726;DHT22;8983;53.156;17.960;2022-11-23T01:57:18;1.10;99.90
17726;DHT22;8983;53.156;17.960;2022-11-23T01:59:47;1.00;99.90
17726;DHT22;8983;53.156;17.960;2022-11-23T02:02:16;1.00;99.90
17726;DHT22;8983;53.156;17.960;2022-11-23T02:04:46;1.00;99.90
17726;DHT22;8983;53.156;17.960;2022-11-23T02:07:18;1.00;99.90
17726;DHT22;8983;53.156;17.960;2022-11-23T02:09:49;1.00;99.90
17726;DHT22;8983;53.156;17.960;2022-11-23T02:12:17;1.00;99.90
17726;DHT22;8983;53.156;17.960;2022-11-23T02:14:45;1.10;99.90
17726;DHT22;8983;53.156;17.960;2022-11-23T02:17:14;1.00;99.90
17726;DHT22;8983;53.156;17.960;2022-11-23T02:19:51;1.10;99.90
17726;DHT22;8983;53.156;17.960;2022-11-23T02:22:27;1.10;99.90
17726;DHT22;8983;53.156;17.960;2022-11-23T02:24:59;1.10;99.90
17726;DHT22;8983;53.156;17.960;2022-11-23T02:27:30;1.10;99.90
17726;DHT22;8983;53.156;17.960;2022-11-23T02:29:59;1.10;99.90
17726;DHT22;8983;53.156;17.960;2022-11-23T02:32:28;1.10;99.90
17726;DHT22;8983;53.156;17.960;2022-11-23T02:34:56;1.10;99.90
17726;DHT22;8983;53.156;17.960;2022-11-23T02:37:24;1.10;99.90
17726;DHT22;8983;53.156;17.960;2022-11-23T02:39:53;1.00;99.90
17726;DHT22;8983;53.156;17.960;2022-11-23T02:42:24;1.10;99.90
17726;DHT22;8983;53.156;17.960;2022-11-23T02:45:02;1.10;99.90
17726;DHT22;8983;53.156;17.960;2022-11-23T02:47:33;1.10;99.90
17726;DHT22;8983;53.156;17.960;2022-11-23T02:50:01;1.10;99.90
17726;DHT22;8983;53.156;17.960;2022-11-23T02:52:46;1.10;99.90
17726;DHT22;8983;53.156;17.960;2022-11-23T02:55:14;1.10;99.90
17726;DHT22;8983;53.156;17.960;2022-11-23T02:57:42;1.10;99.90
17726;DHT22;8983;53.156;17.960;2022-11-23T03:00:12;1.10;99.90
17726;DHT22;8983;53.156;17.960;2022-11-23T03:02:40;1.10;99.90
17726;DHT22;8983;53.156;17.960;2022-11-23T03:05:08;1.10;99.90
17726;DHT22;8983;53.156;17.960;2022-11-23T03:07:36;1.10;99.90
17726;DHT22;8983;53.156;17.960;2022-11-23T03:10:05;1.10;99.90
17726;DHT22;8983;53.156;17.960;2022-11-23T03:12:34;1.10;99.90
17726;DHT22;8983;53.156;17.960;2022-11-23T03:15:02;1.10;99.90
17726;DHT22;8983;53.156;17.960;2022-11-23T03:17:31;1.10;99.90
17726;DHT22;8983;53.156;17.960;2022-11-23T03:20:01;1.10;99.90
17726;DHT22;8983;53.156;17.960;2022-11-23T03:22:29;1.10;99.90
17726;DHT22;8983;53.156;17.960;2022-11-23T03:24:57;1.10;99.90
17726;DHT22;8983;53.156;17.960;2022-11-23T03:27:25;1.10;99.90
17726;DHT22;8983;53.156;17.960;2022-11-23T03:29:53;1.10;99.90
17726;DHT22;8983;53.156;17.960;2022-11-23T03:32:21;1.10;99.90
17726;DHT22;8983;53.156;17.960;2022-11-23T03:34:50;1.10;99.90
17726;DHT22;8983;53.156;17.960;2022-11-23T03:37:18;1.10;99.90
17726;DHT22;8983;53.156;17.960;2022-11-23T03:39:46;1.10;99.90
17726;DHT22;8983;53.156;17.960;2022-11-23T03:42:14;1.10;99.90
17726;DHT22;8983;53.156;17.960;2022-11-23T03:44:41;1.10;99.90
17726;DHT22;8983;53.156;17.960;2022-11-23T03:47:09;1.10;99.90
17726;DHT22;8983;53.156;17.960;2022-11-23T03:49:38;1.10;99.90
17726;DHT22;8983;53.156;17.960;2022-11-23T03:52:07;1.10;99.90
17726;DHT22;8983;53.156;17.960;2022-11-23T03:54:35;1.10;99.90
17726;DHT22;8983;53.156;17.960;2022-11-23T03:57:03;1.10;99.90
17726;DHT22;8983;53.156;17.960;2022-11-23T03:59:31;1.00;99.90
17726;DHT22;8983;53.156;17.960;2022-11-23T04:01:59;1.10;99.90
17726;DHT22;8983;53.156;17.960;2022-11-23T04:04:27;1.00;99.90
17726;DHT22;8983;53.156;17.960;2022-11-23T04:06:55;1.00;99.90
17726;DHT22;8983;53.156;17.960;2022-11-23T04:09:24;1.00;99.90
17726;DHT22;8983;53.156;17.960;2022-11-23T04:11:52;1.10;99.90
17726;DHT22;8983;53.156;17.960;2022-11-23T04:14:20;1.10;99.90
17726;DHT22;8983;53.156;17.960;2022-11-23T04:16:48;1.10;99.90
17726;DHT22;8983;53.156;17.960;2022-11-23T04:19:16;1.00;99.90
17726;DHT22;8983;53.156;17.960;2022-11-23T04:21:44;1.10;99.90
17726;DHT22;8983;53.156;17.960;2022-11-23T04:24:12;1.10;99.90
17726;DHT22;8983;53.156;17.960;2022-11-23T04:26:41;1.10;99.90
17726;DHT22;8983;53.156;17.960;2022-11-23T04:29:09;1.00;99.90
17726;DHT22;8983;53.156;17.960;2022-11-23T04:31:37;1.10;99.90
17726;DHT22;8983;53.156;17.960;2022-11-23T04:34:05;1.00;99.90
17726;DHT22;8983;53.156;17.960;2022-11-23T04:36:33;1.10;99.90
17726;DHT22;8983;53.156;17.960;2022-11-23T04:39:01;1.10;99.90
17726;DHT22;8983;53.156;17.960;2022-11-23T04:41:29;1.10;99.90
17726;DHT22;8983;53.156;17.960;2022-11-23T04:43:59;1.10;99.90
17726;DHT22;8983;53.156;17.960;2022-11-23T04:46:26;1.10;99.90
17726;DHT22;8983;53.156;17.960;2022-11-23T04:48:54;1.10;99.90
17726;DHT22;8983;53.156;17.960;2022-11-23T04:51:22;1.10;99.90
17726;DHT22;8983;53.156;17.960;2022-11-23T04:53:50;1.10;99.90
17726;DHT22;8983;53.156;17.960;2022-11-23T04:56:18;1.10;99.90
17726;DHT22;8983;53.156;17.960;2022-11-23T04:58:46;1.10;99.90
17726;DHT22;8983;53.156;17.960;2022-11-23T05:01:15;1.10;99.90
17726;DHT22;8983;53.156;17.960;2022-11-23T05:03:43;1.10;99.90
17726;DHT22;8983;53.156;17.960;2022-11-23T05:06:11;1.10;99.90
17726;DHT22;8983;53.156;17.960;2022-11-23T05:08:39;1.10;99.90
17726;DHT22;8983;53.156;17.960;2022-11-23T05:11:07;1.10;99.90
17726;DHT22;8983;53.156;17.960;2022-11-23T05:13:35;1.10;99.90
17726;DHT22;8983;53.156;17.960;2022-11-23T05:16:03;1.10;99.90
17726;DHT22;8983;53.156;17.960;2022-11-23T05:18:33;1.10;99.90
17726;DHT22;8983;53.156;17.960;2022-11-23T05:21:01;1.10;99.90
17726;DHT22;8983;53.156;17.960;2022-11-23T05:23:29;1.10;99.90
17726;DHT22;8983;53.156;17.960;2022-11-23T05:25:56;1.10;99.90
17726;DHT22;8983;53.156;17.960;2022-11-23T05:28:24;1.10;99.90
17726;DHT22;8983;53.156;17.960;2022-11-23T05:31:08;1.10;99.90
17726;DHT22;8983;53.156;17.960;2022-11-23T05:33:37;1.10;99.90
17726;DHT22;8983;53.156;17.960;2022-11-23T05:36:06;1.10;99.90
17726;DHT22;8983;53.156;17.960;2022-11-23T05:38:34;1.10;99.90
17726;DHT22;8983;53.156;17.960;2022-11-23T05:41:02;1.10;99.90
17726;DHT22;8983;53.156;17.960;2022-11-23T05:43:30;1.10;99.90
17726;DHT22;8983;53.156;17.960;2022-11-23T05:45:58;1.10;99.90
17726;DHT22;8983;53.156;17.960;2022-11-23T05:48:26;1.10;99.90
17726;DHT22;8983;53.156;17.960;2022-11-23T05:50:55;1.10;99.90
17726;DHT22;8983;53.156;17.960;2022-11-23T05:53:29;1.10;99.90
17726;DHT22;8983;53.156;17.960;2022-11-23T05:55:58;1.10;99.90
17726;DHT22;8983;53.156;17.960;2022-11-23T05:58:27;1.10;99.90
17726;DHT22;8983;53.156;17.960;2022-11-23T06:00:56;1.10;99.90
17726;DHT22;8983;53.156;17.960;2022-11-23T06:03:25;1.10;99.90
17726;DHT22;8983;53.156;17.960;2022-11-23T06:05:55;1.10;99.90
17726;DHT22;8983;53.156;17.960;2022-11-23T06:08:23;1.10;99.90
17726;DHT22;8983;53.156;17.960;2022-11-23T06:10:50;1.10;99.90
17726;DHT22;8983;53.156;17.960;2022-11-23T06:13:18;1.10;99.90
17726;DHT22;8983;53.156;17.960;2022-11-23T06:15:46;1.10;99.90
17726;DHT22;8983;53.156;17.960;2022-11-23T06:18:14;1.10;99.90
17726;DHT22;8983;53.156;17.960;2022-11-23T06:20:42;1.10;99.90
17726;DHT22;8983;53.156;17.960;2022-11-23T06:23:11;1.20;99.90
17726;DHT22;8983;53.156;17.960;2022-11-23T06:25:39;1.20;99.90
17726;DHT22;8983;53.156;17.960;2022-11-23T06:28:08;1.20;99.90
17726;DHT22;8983;53.156;17.960;2022-11-23T06:30:36;1.20;99.90
17726;DHT22;8983;53.156;17.960;2022-11-23T06:33:04;1.20;99.90
17726;DHT22;8983;53.156;17.960;2022-11-23T06:35:32;1.20;99.90
17726;DHT22;8983;53.156;17.960;2022-11-23T06:38:00;1.10;99.90
17726;DHT22;8983;53.156;17.960;2022-11-23T06:40:29;1.10;99.90
17726;DHT22;8983;53.156;17.960;2022-11-23T06:42:58;1.20;99.90
17726;DHT22;8983;53.156;17.960;2022-11-23T06:45:26;1.20;99.90
17726;DHT22;8983;53.156;17.960;2022-11-23T06:47:54;1.20;99.90
17726;DHT22;8983;53.156;17.960;2022-11-23T06:50:23;1.20;99.90
17726;DHT22;8983;53.156;17.960;2022-11-23T06:52:53;1.20;99.90
17726;DHT22;8983;53.156;17.960;2022-11-23T06:55:22;1.20;99.90
17726;DHT22;8983;53.156;17.960;2022-11-23T06:57:51;1.20;99.90
17726;DHT22;8983;53.156;17.960;2022-11-23T07:00:19;1.20;99.90
17726;DHT22;8983;53.156;17.960;2022-11-23T07:02:50;1.30;99.90
17726;DHT22;8983;53.156;17.960;2022-11-23T07:05:19;1.30;99.90
17726;DHT22;8983;53.156;17.960;2022-11-23T07:07:46;1.30;99.90
17726;DHT22;8983;53.156;17.960;2022-11-23T07:10:15;1.20;99.90
17726;DHT22;8983;53.156;17.960;2022-11-23T07:12:43;1.30;99.90
17726;DHT22;8983;53.156;17.960;2022-11-23T07:15:13;1.30;99.90
17726;DHT22;8983;53.156;17.960;2022-11-23T07:17:41;1.30;99.90
17726;DHT22;8983;53.156;17.960;2022-11-23T07:20:12;1.30;99.90
17726;DHT22;8983;53.156;17.960;2022-11-23T07:22:40;1.30;99.90
17726;DHT22;8983;53.156;17.960;2022-11-23T07:25:08;1.40;99.90
17726;DHT22;8983;53.156;17.960;2022-11-23T07:27:37;1.40;99.90
17726;DHT22;8983;53.156;17.960;2022-11-23T07:30:06;1.40;99.90
17726;DHT22;8983;53.156;17.960;2022-11-23T07:32:35;1.40;99.90
17726;DHT22;8983;53.156;17.960;2022-11-23T07:35:04;1.30;99.90
17726;DHT22;8983;53.156;17.960;2022-11-23T07:37:32;1.30;99.90
17726;DHT22;8983;53.156;17.960;2022-11-23T07:40:00;1.40;99.90
17726;DHT22;8983;53.156;17.960;2022-11-23T07:42:28;1.30;99.90
17726;DHT22;8983;53.156;17.960;2022-11-23T07:45:01;1.40;99.90
17726;DHT22;8983;53.156;17.960;2022-11-23T07:47:29;1.40;99.90
17726;DHT22;8983;53.156;17.960;2022-11-23T07:49:59;1.40;99.90
17726;DHT22;8983;53.156;17.960;2022-11-23T07:52:27;1.40;99.90
17726;DHT22;8983;53.156;17.960;2022-11-23T07:54:55;1.40;99.90
17726;DHT22;8983;53.156;17.960;2022-11-23T07:57:26;1.40;99.90
17726;DHT22;8983;53.156;17.960;2022-11-23T07:59:54;1.40;99.90
17726;DHT22;8983;53.156;17.960;2022-11-23T08:02:22;1.40;99.90
17726;DHT22;8983;53.156;17.960;2022-11-23T08:04:50;1.40;99.90
17726;DHT22;8983;53.156;17.960;2022-11-23T08:07:19;1.40;99.90
17726;DHT22;8983;53.156;17.960;2022-11-23T08:09:47;1.40;99.90
17726;DHT22;8983;53.156;17.960;2022-11-23T08:12:16;1.40;99.90
17726;DHT22;8983;53.156;17.960;2022-11-23T08:14:44;1.50;99.90
17726;DHT22;8983;53.156;17.960;2022-11-23T08:17:11;1.50;99.90
17726;DHT22;8983;53.156;17.960;2022-11-23T08:19:39;1.50;99.90
17726;DHT22;8983;53.156;17.960;2022-11-23T08:22:07;1.50;99.90
17726;DHT22;8983;53.156;17.960;2022-11-23T08:24:42;1.50;99.90
17726;DHT22;8983;53.156;17.960;2022-11-23T08:27:10;1.50;99.90
17726;DHT22;8983;53.156;17.960;2022-11-23T08:29:38;1.50;99.90
17726;DHT22;8983;53.156;17.960;2022-11-23T08:32:06;1.50;99.90
17726;DHT22;8983;53.156;17.960;2022-11-23T08:34:34;1.50;99.90
17726;DHT22;8983;53.156;17.960;2022-11-23T08:37:02;1.50;99.90
17726;DHT22;8983;53.156;17.960;2022-11-23T08:39:30;1.50;99.90
17726;DHT22;8983;53.156;17.960;2022-11-23T08:41:59;1.50;99.90
17726;DHT22;8983;53.156;17.960;2022-11-23T08:44:27;1.50;99.90
17726;DHT22;8983;53.156;17.960;2022-11-23T08:46:56;1.50;99.90
17726;DHT22;8983;53.156;17.960;2022-11-23T08:49:24;1.60;99.90
17726;DHT22;8983;53.156;17.960;2022-11-23T08:51:52;1.60;99.90
17726;DHT22;8983;53.156;17.960;2022-11-23T08:54:20;1.50;99.90
17726;DHT22;8983;53.156;17.960;2022-11-23T08:56:49;1.60;99.90
17726;DHT22;8983;53.156;17.960;2022-11-23T08:59:19;1.60;99.90
17726;DHT22;8983;53.156;17.960;2022-11-23T09:01:47;1.60;99.90
17726;DHT22;8983;53.156;17.960;2022-11-23T09:04:15;1.60;99.90
17726;DHT22;8983;53.156;17.960;2022-11-23T09:06:46;1.60;99.90
17726;DHT22;8983;53.156;17.960;2022-11-23T09:09:14;1.60;99.90
17726;DHT22;8983;53.156;17.960;2022-11-23T09:11:42;1.60;99.90
17726;DHT22;8983;53.156;17.960;2022-11-23T09:14:10;1.60;99.90
17726;DHT22;8983;53.156;17.960;2022-11-23T09:16:39;1.60;99.90
17726;DHT22;8983;53.156;17.960;2022-11-23T09:19:10;1.60;99.90
17726;DHT22;8983;53.156;17.960;2022-11-23T09:21:39;1.60;99.90
17726;DHT22;8983;53.156;17.960;2022-11-23T09:24:09;1.60;99.90
17726;DHT22;8983;53.156;17.960;2022-11-23T09:26:38;1.60;99.90
17726;DHT22;8983;53.156;17.960;2022-11-23T09:29:07;1.60;99.90
17726;DHT22;8983;53.156;17.960;2022-11-23T09:31:35;1.60;99.90
17726;DHT22;8983;53.156;17.960;2022-11-23T09:34:04;1.60;99.90
17726;DHT22;8983;53.156;17.960;2022-11-23T09:36:32;1.60;99.90
17726;DHT22;8983;53.156;17.960;2022-11-23T09:39:00;1.60;99.90
17726;DHT22;8983;53.156;17.960;2022-11-23T09:41:51;1.60;99.90
17726;DHT22;8983;53.156;17.960;2022-11-23T09:44:23;1.60;99.90
17726;DHT22;8983;53.156;17.960;2022-11-23T09:47:06;1.60;99.90
17726;DHT22;8983;53.156;17.960;2022-11-23T09:49:44;1.60;99.90
17726;DHT22;8983;53.156;17.960;2022-11-23T09:52:19;1.60;99.90
17726;DHT22;8983;53.156;17.960;2022-11-23T09:54:49;1.60;99.90
17726;DHT22;8983;53.156;17.960;2022-11-23T09:57:23;1.60;99.90
17726;DHT22;8983;53.156;17.960;2022-11-23T09:59:57;1.60;99.90
17726;DHT22;8983;53.156;17.960;2022-11-23T10:02:27;1.60;99.90
17726;DHT22;8983;53.156;17.960;2022-11-23T10:04:59;1.60;99.90
17726;DHT22;8983;53.156;17.960;2022-11-23T10:07:38;1.60;99.90
17726;DHT22;8983;53.156;17.960;2022-11-23T10:10:21;1.70;99.90
17726;DHT22;8983;53.156;17.960;2022-11-23T10:12:59;1.70;99.90
17726;DHT22;8983;53.156;17.960;2022-11-23T10:15:32;1.70;99.90
17726;DHT22;8983;53.156;17.960;2022-11-23T10:18:19;1.70;99.90
17726;DHT22;8983;53.156;17.960;2022-11-23T10:21:01;1.70;99.90
17726;DHT22;8983;53.156;17.960;2022-11-23T10:23:43;1.70;99.90
17726;DHT22;8983;53.156;17.960;2022-11-23T10:26:15;1.70;99.90
17726;DHT22;8983;53.156;17.960;2022-11-23T10:28:45;1.80;99.90
17726;DHT22;8983;53.156;17.960;2022-11-23T10:31:15;1.80;99.90
17726;DHT22;8983;53.156;17.960;2022-11-23T10:33:52;1.80;99.90
17726;DHT22;8983;53.156;17.960;2022-11-23T10:36:22;1.80;99.90
17726;DHT22;8983;53.156;17.960;2022-11-23T10:38:55;1.70;99.90
17726;DHT22;8983;53.156;17.960;2022-11-23T10:41:24;1.80;99.90
17726;DHT22;8983;53.156;17.960;2022-11-23T10:43:56;1.80;99.90
17726;DHT22;8983;53.156;17.960;2022-11-23T10:46:30;1.80;99.90
17726;DHT22;8983;53.156;17.960;2022-11-23T10:49:16;1.80;99.90
17726;DHT22;8983;53.156;17.960;2022-11-23T10:51:53;1.80;99.90
17726;DHT22;8983;53.156;17.960;2022-11-23T10:54:28;1.80;99.90
17726;DHT22;8983;53.156;17.960;2022-11-23T10:56:58;1.80;99.90
17726;DHT22;8983;53.156;17.960;2022-11-23T10:59:35;1.80;99.90
17726;DHT22;8983;53.156;17.960;2022-11-23T11:02:19;1.80;99.90
17726;DHT22;8983;53.156;17.960;2022-11-23T11:04:50;1.80;99.90
17726;DHT22;8983;53.156;17.960;2022-11-23T11:07:27;1.80;99.90
17726;DHT22;8983;53.156;17.960;2022-11-23T11:09:58;1.80;99.90
17726;DHT22;8983;53.156;17.960;2022-11-23T11:12:27;1.80;99.90
17726;DHT22;8983;53.156;17.960;2022-11-23T11:15:14;1.80;99.90
17726;DHT22;8983;53.156;17.960;2022-11-23T11:17:43;1.90;99.90
17726;DHT22;8983;53.156;17.960;2022-11-23T11:20:28;1.90;99.90
17726;DHT22;8983;53.156;17.960;2022-11-23T11:23:00;1.90;99.90
17726;DHT22;8983;53.156;17.960;2022-11-23T11:25:30;2.00;99.90
17726;DHT22;8983;53.156;17.960;2022-11-23T11:27:59;2.00;99.90
17726;DHT22;8983;53.156;17.960;2022-11-23T11:30:35;2.00;99.90
17726;DHT22;8983;53.156;17.960;2022-11-23T11:33:12;2.00;99.90
17726;DHT22;8983;53.156;17.960;2022-11-23T11:35:43;2.10;99.90
17726;DHT22;8983;53.156;17.960;2022-11-23T11:38:18;2.00;99.90
17726;DHT22;8983;53.156;17.960;2022-11-23T11:40:48;2.00;99.90
17726;DHT22;8983;53.156;17.960;2022-11-23T11:43:19;2.00;99.90
17726;DHT22;8983;53.156;17.960;2022-11-23T11:45:59;2.00;99.90
17726;DHT22;8983;53.156;17.960;2022-11-23T11:48:51;2.00;99.90
17726;DHT22;8983;53.156;17.960;2022-11-23T11:51:24;2.00;99.90
17726;DHT22;8983;53.156;17.960;2022-11-23T11:54:00;2.00;99.90
17726;DHT22;8983;53.156;17.960;2022-11-23T11:56:32;2.00;99.90
17726;DHT22;8983;53.156;17.960;2022-11-23T11:59:08;2.00;99.90
17726;DHT22;8983;53.156;17.960;2022-11-23T12:01:43;2.00;99.90
17726;DHT22;8983;53.156;17.960;2022-11-23T12:04:20;2.00;99.90
17726;DHT22;8983;53.156;17.960;2022-11-23T12:06:53;1.90;99.90
17726;DHT22;8983;53.156;17.960;2022-11-23T12:09:28;1.90;99.90
17726;DHT22;8983;53.156;17.960;2022-11-23T12:11:58;1.90;99.90
17726;DHT22;8983;53.156;17.960;2022-11-23T12:14:26;1.90;99.90
17726;DHT22;8983;53.156;17.960;2022-11-23T12:16:59;1.90;99.90
17726;DHT22;8983;53.156;17.960;2022-11-23T12:19:57;2.00;99.90
17726;DHT22;8983;53.156;17.960;2022-11-23T12:22:38;2.00;99.90
17726;DHT22;8983;53.156;17.960;2022-11-23T12:25:22;2.00;99.90
17726;DHT22;8983;53.156;17.960;2022-11-23T12:28:00;2.00;99.90
17726;DHT22;8983;53.156;17.960;2022-11-23T12:30:39;2.10;99.90
17726;DHT22;8983;53.156;17.960;2022-11-23T12:33:26;2.10;99.90
17726;DHT22;8983;53.156;17.960;2022-11-23T12:36:11;2.10;99.90
17726;DHT22;8983;53.156;17.960;2022-11-23T12:38:53;2.20;99.90
17726;DHT22;8983;53.156;17.960;2022-11-23T12:41:28;2.20;99.90
17726;DHT22;8983;53.156;17.960;2022-11-23T12:44:39;2.20;99.90
17726;DHT22;8983;53.156;17.960;2022-11-23T12:47:15;2.20;99.90
17726;DHT22;8983;53.156;17.960;2022-11-23T12:49:52;2.20;99.90
17726;DHT22;8983;53.156;17.960;2022-11-23T12:52:34;2.20;99.90
17726;DHT22;8983;53.156;17.960;2022-11-23T12:55:16;2.20;99.90
17726;DHT22;8983;53.156;17.960;2022-11-23T12:57:51;2.20;99.90
17726;DHT22;8983;53.156;17.960;2022-11-23T13:00:21;2.20;99.90
17726;DHT22;8983;53.156;17.960;2022-11-23T13:03:10;2.20;99.90
17726;DHT22;8983;53.156;17.960;2022-11-23T13:05:59;2.20;99.90
17726;DHT22;8983;53.156;17.960;2022-11-23T13:08:53;2.20;99.90
17726;DHT22;8983;53.156;17.960;2022-11-23T13:11:35;2.10;99.90
17726;DHT22;8983;53.156;17.960;2022-11-23T13:14:17;2.10;99.90
17726;DHT22;8983;53.156;17.960;2022-11-23T13:17:04;2.10;99.90
17726;DHT22;8983;53.156;17.960;2022-11-23T13:19:49;2.10;99.90
17726;DHT22;8983;53.156;17.960;2022-11-23T13:22:21;2.10;99.90
17726;DHT22;8983;53.156;17.960;2022-11-23T13:25:02;2.10;99.90
17726;DHT22;8983;53.156;17.960;2022-11-23T13:27:53;2.10;99.90
17726;DHT22;8983;53.156;17.960;2022-11-23T13:30:29;2.10;99.90
17726;DHT22;8983;53.156;17.960;2022-11-23T13:33:25;2.00;99.90
17726;DHT22;8983;53.156;17.960;2022-11-23T13:36:01;2.00;99.90
17726;DHT22;8983;53.156;17.960;2022-11-23T13:38:40;2.00;99.90
17726;DHT22;8983;53.156;17.960;2022-11-23T13:44:26;2.10;99.90
17726;DHT22;8983;53.156;17.960;2022-11-23T13:47:17;2.10;99.90
17726;DHT22;8983;53.156;17.960;2022-11-23T13:49:47;2.10;99.90
17726;DHT22;8983;53.156;17.960;2022-11-23T13:52:24;2.20;99.90
17726;DHT22;8983;53.156;17.960;2022-11-23T13:55:00;2.20;99.90
17726;DHT22;8983;53.156;17.960;2022-11-23T13:57:36;2.20;99.90
17726;DHT22;8983;53.156;17.960;2022-11-23T14:06:40;2.20;99.90
17726;DHT22;8983;53.156;17.960;2022-11-23T14:09:16;2.20;99.90
17726;DHT22;8983;53.156;17.960;2022-11-23T14:11:55;2.20;99.90
17726;DHT22;8983;53.156;17.960;2022-11-23T14:14:28;2.20;99.90
17726;DHT22;8983;53.156;17.960;2022-11-23T14:20:03;2.10;99.90
17726;DHT22;8983;53.156;17.960;2022-11-23T14:22:40;2.10;99.90
17726;DHT22;8983;53.156;17.960;2022-11-23T14:25:22;2.00;99.90
17726;DHT22;8983;53.156;17.960;2022-11-23T14:28:00;2.00;99.90
17726;DHT22;8983;53.156;17.960;2022-11-23T14:30:40;2.10;99.90
17726;DHT22;8983;53.156;17.960;2022-11-23T14:33:18;2.10;99.90
17726;DHT22;8983;53.156;17.960;2022-11-23T14:35:56;2.10;99.90
17726;DHT22;8983;53.156;17.960;2022-11-23T14:38:53;2.10;99.90
17726;DHT22;8983;53.156;17.960;2022-11-23T14:41:25;2.00;99.90
17726;DHT22;8983;53.156;17.960;2022-11-23T14:43:56;2.00;99.90
17726;DHT22;8983;53.156;17.960;2022-11-23T14:46:27;2.00;99.90
17726;DHT22;8983;53.156;17.960;2022-11-23T14:49:02;2.00;99.90
17726;DHT22;8983;53.156;17.960;2022-11-23T14:51:32;2.10;99.90
17726;DHT22;8983;53.156;17.960;2022-11-23T14:54:07;2.00;99.90
17726;DHT22;8983;53.156;17.960;2022-11-23T14:56:38;2.10;99.90
17726;DHT22;8983;53.156;17.960;2022-11-23T14:59:18;2.00;99.90
17726;DHT22;8983;53.156;17.960;2022-11-23T15:01:50;2.10;99.90
17726;DHT22;8983;53.156;17.960;2022-11-23T15:04:24;2.10;99.90
17726;DHT22;8983;53.156;17.960;2022-11-23T15:06:57;2.10;99.90
17726;DHT22;8983;53.156;17.960;2022-11-23T15:09:40;2.10;99.90
17726;DHT22;8983;53.156;17.960;2022-11-23T15:12:21;2.10;99.90
17726;DHT22;8983;53.156;17.960;2022-11-23T15:14:50;2.10;99.90
17726;DHT22;8983;53.156;17.960;2022-11-23T15:17:20;2.10;99.90
17726;DHT22;8983;53.156;17.960;2022-11-23T15:19:53;2.10;99.90
17726;DHT22;8983;53.156;17.960;2022-11-23T15:22:21;2.10;99.90
17726;DHT22;8983;53.156;17.960;2022-11-23T15:24:54;2.10;99.90
17726;DHT22;8983;53.156;17.960;2022-11-23T15:27:32;2.20;99.90
17726;DHT22;8983;53.156;17.960;2022-11-23T15:30:00;2.20;99.90
17726;DHT22;8983;53.156;17.960;2022-11-23T15:32:29;2.20;99.90
17726;DHT22;8983;53.156;17.960;2022-11-23T15:35:02;2.20;99.90
17726;DHT22;8983;53.156;17.960;2022-11-23T15:37:37;2.20;99.90
17726;DHT22;8983;53.156;17.960;2022-11-23T15:40:13;2.20;99.90
17726;DHT22;8983;53.156;17.960;2022-11-23T15:42:42;2.20;99.90
17726;DHT22;8983;53.156;17.960;2022-11-23T15:45:32;2.20;99.90
17726;DHT22;8983;53.156;17.960;2022-11-23T15:48:02;2.20;99.90
17726;DHT22;8983;53.156;17.960;2022-11-23T15:50:31;2.20;99.90
17726;DHT22;8983;53.156;17.960;2022-11-23T15:53:00;2.20;99.90
17726;DHT22;8983;53.156;17.960;2022-11-23T15:55:30;2.20;99.90
17726;DHT22;8983;53.156;17.960;2022-11-23T15:57:59;2.20;99.90
17726;DHT22;8983;53.156;17.960;2022-11-23T16:00:28;2.20;99.90
17726;DHT22;8983;53.156;17.960;2022-11-23T16:03:20;2.10;99.90
17726;DHT22;8983;53.156;17.960;2022-11-23T16:06:18;2.20;99.90
17726;DHT22;8983;53.156;17.960;2022-11-23T16:08:46;2.20;99.90
17726;DHT22;8983;53.156;17.960;2022-11-23T16:11:27;2.20;99.90
17726;DHT22;8983;53.156;17.960;2022-11-23T16:14:13;2.20;99.90
17726;DHT22;8983;53.156;17.960;2022-11-23T16:16:42;2.20;99.90
17726;DHT22;8983;53.156;17.960;2022-11-23T16:19:20;2.20;99.90
17726;DHT22;8983;53.156;17.960;2022-11-23T16:21:53;2.20;99.90
17726;DHT22;8983;53.156;17.960;2022-11-23T16:24:28;2.20;99.90
17726;DHT22;8983;53.156;17.960;2022-11-23T16:27:00;2.10;99.90